Time;durP1;ratioP1;P1;durP2;ratioP2;P2;SDS_P1;SDS_P2;PMS_P1;PMS_P2;Temp;Humidity;BMP_temperature;BMP_pressure;BME280_temperature;BME280_humidity;BME280_pressure;Samples;Min_cycle;Max_cycle;Signal;HPM_P1;HPM_P2
2022/04/05 00:01:42;;;;;;;;;9.75;9.75;;;;;10.51;57.57;100850.13;5122567;27;45413;-73
2022/04/05 00:04:07;;;;;;;;;11.75;10.75;;;;;10.82;57.81;100907.09;5104442;27;45120;-73
2022/04/05 00:06:32;;;;;;;;;16.75;13.00;;;;;10.84;57.62;100912.47;5112329;27;45339;-73
2022/04/05 00:08:58;;;;;;;;;9.50;7.25;;;;;10.66;57.81;100873.69;5116227;27;45105;-73
2022/04/05 00:11:23;;;;;;;;;12.25;9.50;;;;;10.76;57.99;100906.91;5118239;27;45305;-73
2022/04/05 00:13:48;;;;;;;;;10.50;10.50;;;;;10.85;58.25;100907.16;5107828;27;45154;-73
2022/04/05 00:16:14;;;;;;;;;9.00;8.50;;;;;10.78;57.98;100890.94;5122850;27;46120;-73
2022/04/05 00:18:39;;;;;;;;;11.00;11.00;;;;;10.42;58.09;100828.47;5125646;27;45359;-72
2022/04/05 00:21:05;;;;;;;;;13.25;12.00;;;;;10.61;58.16;100866.38;5126426;27;45990;-72
2022/04/05 00:23:31;;;;;;;;;14.75;12.50;;;;;10.81;58.79;100901.72;5115724;27;45065;-73
2022/04/05 00:25:56;;;;;;;;;11.50;10.75;;;;;10.77;58.74;100890.00;5126404;27;45450;-73
2022/04/05 00:28:22;;;;;;;;;12.00;9.50;;;;;10.84;58.70;100905.38;5115986;27;50927;-73
2022/04/05 00:30:47;;;;;;;;;11.75;11.75;;;;;10.89;58.64;100900.16;5120685;27;45040;-72
2022/04/05 00:33:12;;;;;;;;;11.75;8.00;;;;;10.90;59.34;100917.09;5111158;27;46269;-72
2022/04/05 00:35:38;;;;;;;;;13.25;12.25;;;;;10.80;59.33;100899.88;5120564;27;45619;-72
2022/04/05 00:38:03;;;;;;;;;13.50;11.00;;;;;10.72;59.38;100877.38;5122183;27;45217;-71
2022/04/05 00:40:30;;;;;;;;;15.50;11.00;;;;;10.87;59.46;100910.78;5122260;27;45565;-72
2022/04/05 00:42:56;;;;;;;;;10.75;8.25;;;;;10.81;59.78;100886.56;5126821;27;45123;-70
2022/04/05 00:45:21;;;;;;;;;11.50;11.00;;;;;10.71;59.82;100868.47;5125404;27;44969;-71
2022/04/05 00:47:50;;;;;;;;;10.50;9.75;;;;;10.92;60.04;100896.63;5118524;27;44908;-73
2022/04/05 00:50:20;;;;;;;;;11.00;9.25;;;;;10.93;60.18;100893.13;5120991;27;45134;-71
2022/04/05 00:52:46;;;;;;;;;13.75;8.25;;;;;10.91;60.27;100897.53;5117158;27;45628;-71
2022/04/05 00:55:11;;;;;;;;;10.00;10.00;;;;;10.60;60.87;100861.91;5121765;27;45299;-72
2022/04/05 00:57:39;;;;;;;;;8.50;7.75;;;;;10.82;61.02;100899.06;5119274;27;45169;-73
2022/04/05 01:00:07;;;;;;;;;11.00;11.00;;;;;10.82;61.40;100899.06;5130053;27;45080;-71
2022/04/05 01:02:36;;;;;;;;;9.50;9.50;;;;;10.82;61.22;100895.47;5118075;27;45305;-71
2022/04/05 01:05:03;;;;;;;;;12.50;10.00;;;;;10.85;61.45;100887.53;5120883;27;46263;-73
2022/04/05 01:07:31;;;;;;;;;9.25;8.75;;;;;10.76;61.56;100880.19;5114736;27;45107;-73
2022/04/05 01:09:58;;;;;;;;;7.00;6.00;;;;;10.65;61.81;100860.28;5125632;27;45132;-71
2022/04/05 01:12:23;;;;;;;;;11.75;8.25;;;;;10.82;62.10;100891.06;5132787;27;45103;-71
2022/04/05 01:14:51;;;;;;;;;13.25;10.50;;;;;10.83;62.45;100889.28;5128192;27;45187;-73
2022/04/05 01:17:17;;;;;;;;;10.00;10.00;;;;;10.69;62.97;100876.44;5128045;27;45672;-73
2022/04/05 01:19:44;;;;;;;;;9.75;7.25;;;;;10.83;62.45;100890.19;5117530;27;45069;-73
2022/04/05 01:22:10;;;;;;;;;12.25;10.75;;;;;10.77;63.08;100886.44;5131819;27;45225;-73
2022/04/05 01:24:36;;;;;;;;;9.00;9.00;;;;;10.37;62.94;100806.06;5136095;27;45566;-74
2022/04/05 01:27:04;;;;;;;;;19.00;12.25;;;;;10.70;62.78;100856.84;5120377;27;45114;-73
2022/04/05 01:29:30;;;;;;;;;9.50;9.50;;;;;10.85;63.50;100880.41;5119259;27;45120;-72
2022/04/05 01:31:58;;;;;;;;;11.00;9.25;;;;;10.84;63.69;100878.63;5133572;27;45185;-71
2022/04/05 01:34:26;;;;;;;;;9.75;9.75;;;;;10.82;64.19;100883.03;5119671;27;45732;-70
2022/04/05 01:36:55;;;;;;;;;11.25;10.00;;;;;10.80;64.02;100879.41;5124363;27;45020;-73
2022/04/05 01:39:23;;;;;;;;;7.00;7.00;;;;;10.85;63.49;100872.41;5123188;27;45539;-73
2022/04/05 01:41:53;;;;;;;;;7.00;6.25;;;;;10.87;63.08;100873.38;5123828;27;44941;-73
2022/04/05 01:44:19;;;;;;;;;12.00;9.75;;;;;10.90;63.44;100866.28;5120339;27;46005;-71
2022/04/05 01:46:44;;;;;;;;;9.00;9.00;;;;;10.91;63.18;100868.13;5116537;27;45143;-73
2022/04/05 01:49:14;;;;;;;;;8.75;8.75;;;;;10.94;63.11;100860.16;5107693;27;44939;-73
2022/04/05 01:51:41;;;;;;;;;8.00;8.00;;;;;10.80;63.30;100844.66;5120967;27;45226;-72
2022/04/05 01:54:09;;;;;;;;;11.75;9.25;;;;;10.94;63.67;100870.84;5110579;27;47694;-73
2022/04/05 01:56:44;;;;;;;;;14.50;12.50;;;;;10.93;63.61;100869.94;5129409;27;45141;-73
2022/04/05 01:59:11;;;;;;;;;11.50;11.00;;;;;10.83;63.26;100843.84;5120025;27;45224;-73
2022/04/05 02:01:36;;;;;;;;;13.50;8.00;;;;;10.90;63.67;100855.59;5130010;27;45232;-74
2022/04/05 02:04:02;;;;;;;;;12.00;8.75;;;;;10.93;64.00;100861.03;5112191;27;46231;-73
2022/04/05 02:06:28;;;;;;;;;15.50;11.75;;;;;10.86;63.77;100852.84;5129991;27;45213;-73
2022/04/05 02:08:53;;;;;;;;;14.00;11.00;;;;;10.77;64.18;100838.31;5121695;27;44993;-73
2022/04/05 02:11:19;;;;;;;;;11.25;9.00;;;;;10.89;63.93;100862.72;5120155;27;45141;-71
2022/04/05 02:13:45;;;;;;;;;11.75;10.00;;;;;10.92;64.36;100857.44;5116302;27;45211;-71
2022/04/05 02:16:10;;;;;;;;;16.25;8.75;;;;;10.87;64.29;100854.66;5119258;27;45311;-74
2022/04/05 02:18:37;;;;;;;;;8.00;8.00;;;;;10.90;64.03;100863.63;5120356;27;45384;-72
2022/04/05 02:21:03;;;;;;;;;8.75;8.75;;;;;10.82;64.29;100850.97;5123085;27;45345;-74
2022/04/05 02:23:29;;;;;;;;;8.75;8.75;;;;;10.92;64.47;100856.53;5119372;27;46227;-71
2022/04/05 02:25:54;;;;;;;;;13.50;12.00;;;;;10.86;64.75;100852.84;5124593;27;45093;-72
2022/04/05 02:28:20;;;;;;;;;13.25;9.75;;;;;10.78;64.49;100837.47;5123147;27;45259;-72
2022/04/05 02:30:45;;;;;;;;;12.25;9.25;;;;;10.76;64.55;100836.53;5121720;27;45112;-73
2022/04/05 02:33:11;;;;;;;;;12.00;8.75;;;;;10.92;64.82;100857.44;5131318;27;45150;-73
2022/04/05 02:35:37;;;;;;;;;13.50;11.00;;;;;10.83;64.92;100841.16;5125292;27;45109;-73
2022/04/05 02:38:04;;;;;;;;;15.50;10.25;;;;;10.72;64.36;100816.81;5125124;27;45208;-73
2022/04/05 02:40:29;;;;;;;;;16.50;11.50;;;;;10.96;64.70;100847.75;5128488;27;45176;-71
2022/04/05 02:42:55;;;;;;;;;9.50;9.50;;;;;10.99;64.24;100842.50;5116407;27;45360;-74
2022/04/05 02:45:21;;;;;;;;;10.75;10.75;;;;;10.84;64.37;100827.84;5121076;27;45087;-73
2022/04/05 02:47:46;;;;;;;;;14.50;11.50;;;;;10.94;65.28;100844.13;5118791;27;45078;-72
2022/04/05 02:50:14;;;;;;;;;9.75;8.25;;;;;10.84;65.43;100833.19;5118085;27;45191;-73
2022/04/05 02:52:39;;;;;;;;;11.75;9.25;;;;;10.87;65.10;100833.28;5125135;27;45350;-73
2022/04/05 02:55:05;;;;;;;;;12.25;12.25;;;;;10.94;65.14;100839.69;5112624;27;44853;-73
2022/04/05 02:57:35;;;;;;;;;12.00;9.75;;;;;10.81;65.16;100806.38;5123264;27;45278;-73
2022/04/05 03:00:01;;;;;;;;;12.25;9.50;;;;;10.98;65.23;100840.66;5117893;27;45257;-73
2022/04/05 03:02:26;;;;;;;;;8.75;7.50;;;;;10.97;65.48;100836.19;5120366;27;45193;-72
2022/04/05 03:04:51;;;;;;;;;9.50;9.50;;;;;10.96;65.12;100831.72;5122989;27;44996;-73
2022/04/05 03:07:17;;;;;;;;;12.50;9.00;;;;;11.02;65.63;100832.78;5115087;27;45161;-73
2022/04/05 03:09:42;;;;;;;;;12.50;11.25;;;;;11.00;65.66;100834.47;5132259;27;45143;-73
2022/04/05 03:12:08;;;;;;;;;13.50;11.50;;;;;10.99;66.03;100834.47;5127122;27;52558;-73
2022/04/05 03:14:33;;;;;;;;;6.75;5.75;;;;;10.83;66.04;100810.00;5116406;27;45249;-72
2022/04/05 03:16:58;;;;;;;;;10.50;8.00;;;;;10.67;66.79;100789.06;5126749;27;45249;-73
2022/04/05 03:19:24;;;;;;;;;8.00;8.00;;;;;10.86;66.58;100831.47;5112969;27;45217;-73
2022/04/05 03:21:49;;;;;;;;;14.00;13.00;;;;;10.81;67.72;100818.84;5124066;27;45988;-73
2022/04/05 03:24:14;;;;;;;;;11.25;9.25;;;;;10.85;67.08;100829.63;5123880;27;45075;-74
2022/04/05 03:26:40;;;;;;;;;7.00;7.00;;;;;10.50;67.26;100769.94;5118798;27;45153;-74
2022/04/05 03:29:05;;;;;;;;;14.75;11.75;;;;;10.82;66.66;100813.56;5128663;27;45078;-73
2022/04/05 03:31:30;;;;;;;;;10.25;9.25;;;;;10.75;67.38;100800.88;5121044;27;46065;-73
2022/04/05 03:33:56;;;;;;;;;9.75;9.25;;;;;10.87;67.22;100817.25;5120685;27;45011;-73
2022/04/05 03:36:21;;;;;;;;;11.75;8.00;;;;;10.86;67.46;100819.88;5120336;27;44933;-73
2022/04/05 03:38:46;;;;;;;;;13.00;11.00;;;;;10.82;66.82;100807.28;5128215;27;45246;-74
2022/04/05 03:41:12;;;;;;;;;7.75;7.00;;;;;10.87;67.24;100811.91;5117615;27;45722;-74
2022/04/05 03:43:37;;;;;;;;;8.75;8.00;;;;;10.77;67.52;100801.81;5126065;27;45064;-73
2022/04/05 03:46:02;;;;;;;;;9.75;8.75;;;;;10.78;67.74;100803.63;5127463;27;45257;-74
2022/04/05 03:48:28;;;;;;;;;9.00;9.00;;;;;10.72;67.74;100784.75;5127126;27;45038;-73
2022/04/05 03:50:53;;;;;;;;;10.50;9.50;;;;;10.88;67.42;100812.78;5127952;27;45933;-73
2022/04/05 03:53:19;;;;;;;;;11.75;11.00;;;;;10.83;67.75;100807.31;5121802;27;44989;-73
2022/04/05 03:55:44;;;;;;;;;10.75;10.50;;;;;10.82;68.00;100808.22;5128002;27;44991;-74
2022/04/05 03:58:12;;;;;;;;;10.00;7.00;;;;;10.79;68.23;100799.19;5120174;27;45091;-73
2022/04/05 04:00:38;;;;;;;;;11.75;9.75;;;;;10.69;68.29;100806.03;5125159;27;45702;-73
2022/04/05 04:03:04;;;;;;;;;11.50;6.00;;;;;10.63;69.03;100816.59;5113842;27;45376;-73
2022/04/05 04:05:29;;;;;;;;;5.00;3.00;;;;;10.49;69.08;100768.13;5115733;27;45235;-74
2022/04/05 04:07:54;;;;;;;;;14.75;11.50;;;;;10.61;69.39;100791.56;5125299;27;45107;-73
2022/04/05 04:10:20;;;;;;;;;13.00;11.75;;;;;10.70;69.59;100807.88;5121524;27;45818;-73
2022/04/05 04:12:45;;;;;;;;;13.25;11.25;;;;;10.66;69.87;100806.88;5123248;27;44978;-73
2022/04/05 04:15:12;;;;;;;;;13.50;11.50;;;;;10.51;69.93;100786.00;5119744;27;45107;-73
2022/04/05 04:17:37;;;;;;;;;12.25;11.75;;;;;10.74;69.79;100809.78;5123452;27;45089;-73
2022/04/05 04:20:04;;;;;;;;;11.75;9.50;;;;;10.66;69.41;100800.66;5117365;27;45240;-73
2022/04/05 04:22:29;;;;;;;;;12.50;8.75;;;;;10.69;69.67;100808.72;5119634;27;45176;-71
2022/04/05 04:24:56;;;;;;;;;13.50;10.50;;;;;10.66;70.50;100809.56;5127760;27;45181;-74
2022/04/05 04:27:22;;;;;;;;;13.50;9.25;;;;;10.68;70.06;100806.94;5131425;27;45104;-74
2022/04/05 04:29:47;;;;;;;;;10.00;8.00;;;;;10.68;70.12;100806.94;5116533;27;45369;-71
2022/04/05 04:32:12;;;;;;;;;18.25;16.00;;;;;10.58;70.51;100783.50;5104983;27;45206;-72
2022/04/05 04:34:38;;;;;;;;;24.00;16.25;;;;;10.50;70.06;100775.28;5100663;27;45044;-74
2022/04/05 04:37:04;;;;;;;;;12.50;12.50;;;;;10.68;70.59;100806.94;5086600;27;45314;-73
2022/04/05 04:39:29;;;;;;;;;11.25;11.25;;;;;10.67;70.62;100799.75;5096552;27;45722;-73
2022/04/05 04:41:58;;;;;;;;;11.00;9.75;;;;;10.51;70.80;100775.31;5103382;27;45044;-74
2022/04/05 04:44:24;;;;;;;;;12.00;10.25;;;;;10.67;71.06;100800.69;5092774;27;45101;-70
2022/04/05 04:46:49;;;;;;;;;12.25;9.50;;;;;10.64;70.45;100797.00;5106537;27;44906;-73
2022/04/05 04:49:15;;;;;;;;;10.75;8.25;;;;;10.72;70.65;100800.78;5081974;27;46054;-71
2022/04/05 04:51:40;;;;;;;;;12.50;9.00;;;;;10.63;71.03;100789.88;5096889;27;45068;-72
2022/04/05 04:54:06;;;;;;;;;12.75;8.00;;;;;10.73;70.54;100797.25;5112935;27;45837;-73
2022/04/05 04:56:31;;;;;;;;;15.50;11.50;;;;;10.74;70.38;100796.41;5110068;27;45317;-73
2022/04/05 04:58:57;;;;;;;;;12.25;10.50;;;;;10.54;70.84;100762.91;5102477;27;45008;-71
2022/04/05 05:01:22;;;;;;;;;17.00;14.25;;;;;10.71;70.75;100785.63;5097741;27;45386;-72
2022/04/05 05:03:47;;;;;;;;;13.50;13.00;;;;;10.36;70.36;100718.81;5110484;27;45064;-72
2022/04/05 05:06:13;;;;;;;;;17.00;11.25;;;;;10.80;71.20;100798.31;5103125;27;45542;-72
2022/04/05 05:08:39;;;;;;;;;16.75;11.50;;;;;10.81;71.08;100789.47;5107839;27;45603;-72
2022/04/05 05:11:04;;;;;;;;;11.00;8.50;;;;;10.77;70.26;100783.09;5105273;27;45101;-73
2022/04/05 05:13:31;;;;;;;;;12.25;11.25;;;;;10.83;71.48;100790.41;5082684;27;45070;-74
2022/04/05 05:15:57;;;;;;;;;10.75;9.50;;;;;10.85;70.61;100799.34;5089340;27;45120;-74
2022/04/05 05:18:22;;;;;;;;;17.00;14.00;;;;;10.72;70.80;100773.16;5103984;27;45823;-73
2022/04/05 05:20:47;;;;;;;;;17.25;11.25;;;;;10.85;70.92;100788.66;5104771;27;45087;-73
2022/04/05 05:23:13;;;;;;;;;14.00;13.00;;;;;10.89;70.70;100793.22;5099915;27;45116;-72
2022/04/05 05:25:38;;;;;;;;;17.00;12.50;;;;;10.81;70.48;100771.66;5103290;27;45159;-71
2022/04/05 05:28:04;;;;;;;;;14.75;14.00;;;;;10.83;70.93;100772.56;5099799;27;45422;-73
2022/04/05 05:30:29;;;;;;;;;14.00;10.75;;;;;10.90;71.35;100783.44;5101934;27;45124;-74
2022/04/05 05:32:55;;;;;;;;;16.50;13.25;;;;;10.95;70.57;100795.16;5099748;27;45053;-73
2022/04/05 05:35:21;;;;;;;;;15.50;12.75;;;;;10.86;70.96;100787.81;5103554;27;45154;-73
2022/04/05 05:37:48;;;;;;;;;11.75;10.25;;;;;10.95;70.58;100792.47;5100813;27;45008;-73
2022/04/05 05:40:15;;;;;;;;;17.00;14.25;;;;;10.95;71.03;100789.78;5100441;27;45052;-73
2022/04/05 05:42:51;;;;;;;;;14.00;12.50;;;;;10.93;70.81;100783.50;5098046;27;45060;-72
2022/04/05 05:45:18;;;;;;;;;11.50;11.50;;;;;10.90;70.56;100786.09;5100357;27;45146;-73
2022/04/05 05:47:43;;;;;;;;;17.75;17.00;;;;;10.83;71.29;100777.03;5104280;27;45380;-73
2022/04/05 05:50:10;;;;;;;;;11.75;9.75;;;;;10.76;70.68;100767.94;5101622;27;45174;-70
2022/04/05 05:52:36;;;;;;;;;17.50;14.75;;;;;10.78;70.74;100766.22;5092791;27;45497;-68
2022/04/05 05:55:02;;;;;;;;;13.75;12.75;;;;;10.88;71.04;100780.72;5106167;27;45210;-75
2022/04/05 05:57:27;;;;;;;;;13.25;12.75;;;;;10.79;70.64;100769.78;5102772;27;45339;-72
2022/04/05 05:59:53;;;;;;;;;14.00;14.00;;;;;10.72;71.02;100766.03;5101156;27;45071;-75
2022/04/05 06:02:18;;;;;;;;;14.00;12.75;;;;;10.94;70.77;100799.59;5107089;27;45174;-75
2022/04/05 06:04:43;;;;;;;;;19.25;17.50;;;;;10.74;70.76;100768.75;5095896;27;44984;-75
2022/04/05 06:07:09;;;;;;;;;12.50;9.00;;;;;10.72;70.59;100770.50;5099905;27;45407;-76
2022/04/05 06:09:35;;;;;;;;;14.25;13.00;;;;;10.73;70.93;100775.00;5102939;27;47010;-76
2022/04/05 06:12:00;;;;;;;;;10.50;9.50;;;;;10.81;70.91;100784.13;5104448;27;45365;-75
2022/04/05 06:14:25;;;;;;;;;12.75;12.50;;;;;10.87;70.88;100790.53;5101265;27;45007;-73
2022/04/05 06:16:51;;;;;;;;;15.25;13.25;;;;;10.87;70.84;100792.25;5097006;27;45151;-75
2022/04/05 06:19:16;;;;;;;;;14.50;11.75;;;;;10.83;70.81;100775.25;5100715;27;48905;-76
2022/04/05 06:21:41;;;;;;;;;13.25;12.25;;;;;11.03;71.08;100821.19;5098151;27;45274;-76
2022/04/05 06:24:07;;;;;;;;;19.00;11.50;;;;;11.00;70.89;100810.41;5097326;27;45433;-71
2022/04/05 06:26:32;;;;;;;;;15.25;12.75;;;;;11.06;70.44;100823.06;5105384;27;45206;-72
2022/04/05 06:28:58;;;;;;;;;12.50;12.25;;;;;11.10;70.72;100824.03;5106708;27;45016;-76
2022/04/05 06:31:23;;;;;;;;;16.25;13.75;;;;;11.01;70.93;100819.38;5096684;27;46435;-75
2022/04/05 06:33:48;;;;;;;;;16.00;15.50;;;;;11.10;71.22;100830.28;5097354;27;45119;-76
2022/04/05 06:36:14;;;;;;;;;17.75;17.75;;;;;11.05;71.25;100823.91;5099486;27;45293;-73
2022/04/05 06:38:39;;;;;;;;;18.00;17.75;;;;;10.71;71.51;100758.91;5099356;27;45187;-75
2022/04/05 06:41:05;;;;;;;;;14.75;10.50;;;;;11.17;71.25;100828.66;5106292;27;45221;-70
2022/04/05 06:43:30;;;;;;;;;26.50;17.25;;;;;10.93;71.56;100799.56;5105783;27;45212;-73
2022/04/05 06:45:56;;;;;;;;;14.50;14.50;;;;;10.84;71.85;100790.44;5106717;27;45142;-76
2022/04/05 06:48:21;;;;;;;;;16.75;15.75;;;;;11.15;72.44;100838.44;5106517;27;45135;-68
2022/04/05 06:50:50;;;;;;;;;11.75;8.75;;;;;11.00;72.22;100806.84;5104987;27;44949;-75
2022/04/05 06:53:16;;;;;;;;;15.25;13.75;;;;;11.11;72.56;100829.44;5083517;27;45727;-72
2022/04/05 06:55:42;;;;;;;;;15.75;14.00;;;;;11.17;72.13;100820.63;5112063;27;45486;-72
2022/04/05 06:58:08;;;;;;;;;9.50;9.50;;;;;11.21;72.24;100836.81;5112825;27;45175;-71
2022/04/05 07:00:34;;;;;;;;;15.25;14.00;;;;;11.10;71.98;100808.88;5091503;27;45647;-73
2022/04/05 07:02:59;;;;;;;;;15.75;12.50;;;;;11.26;72.46;100834.25;5105606;27;45236;-74
2022/04/05 07:05:25;;;;;;;;;17.50;16.00;;;;;11.28;72.13;100823.59;5108035;27;45278;-76
2022/04/05 07:07:50;;;;;;;;;16.75;14.75;;;;;11.29;71.78;100828.09;5104989;27;45462;-77
2022/04/05 07:10:18;;;;;;;;;15.75;13.50;;;;;11.31;71.64;100829.03;5100816;27;45297;-77
2022/04/05 07:12:45;;;;;;;;;18.00;18.00;;;;;11.18;72.25;100798.41;5094229;27;45510;-74
2022/04/05 07:15:11;;;;;;;;;15.75;14.75;;;;;11.36;71.89;100820.22;5094601;27;45626;-75
2022/04/05 07:17:40;;;;;;;;;10.00;9.25;;;;;11.11;71.83;100783.06;5093850;27;45616;-75
2022/04/05 07:20:08;;;;;;;;;14.25;11.25;;;;;10.90;71.97;100741.56;5094921;27;45433;-77
2022/04/05 07:22:35;;;;;;;;;16.50;15.75;;;;;10.68;72.41;100708.06;5095110;27;45482;-77
2022/04/05 07:25:00;;;;;;;;;14.75;14.25;;;;;11.20;72.54;100792.22;5095074;27;45652;-74
2022/04/05 07:27:26;;;;;;;;;12.00;9.75;;;;;11.23;72.30;100797.63;5094778;27;45420;-72
2022/04/05 07:29:51;;;;;;;;;17.50;15.00;;;;;11.44;72.22;100810.63;5098154;27;45489;-71
2022/04/05 07:32:17;;;;;;;;;12.25;12.25;;;;;11.55;71.49;100824.28;5116217;27;45424;-73
2022/04/05 07:34:42;;;;;;;;;17.75;14.00;;;;;11.36;71.58;100784.56;5082812;27;46232;-70
2022/04/05 07:37:09;;;;;;;;;11.50;11.50;;;;;11.61;71.99;100823.50;5095971;27;45418;-77
2022/04/05 07:39:36;;;;;;;;;15.75;14.25;;;;;11.61;71.98;100820.81;5096603;27;45764;-74
2022/04/05 07:42:02;;;;;;;;;16.00;12.75;;;;;11.55;72.29;100809.97;5103851;27;45495;-72
2022/04/05 07:44:27;;;;;;;;;13.50;11.25;;;;;11.16;71.54;100736.84;5115306;27;46346;-73
2022/04/05 07:46:53;;;;;;;;;10.75;10.75;;;;;11.69;71.89;100832.59;5115315;27;45490;-72
2022/04/05 07:49:18;;;;;;;;;9.00;9.00;;;;;11.52;71.60;100797.44;5095679;27;45488;-69
2022/04/05 07:51:44;;;;;;;;;10.00;8.00;;;;;11.73;72.13;100833.56;5097313;27;45642;-71
2022/04/05 07:54:09;;;;;;;;;11.75;9.25;;;;;11.67;71.36;100817.41;5115050;27;46170;-70
2022/04/05 07:56:35;;;;;;;;;16.25;11.75;;;;;11.64;71.79;100801.28;5114994;27;45448;-73
2022/04/05 07:59:01;;;;;;;;;16.75;11.50;;;;;11.79;72.27;100823.00;5096900;27;45480;-75
2022/04/05 08:01:29;;;;;;;;;6.75;6.50;;;;;11.79;71.72;100825.69;5115399;27;46113;-74
2022/04/05 08:03:57;;;;;;;;;13.50;10.75;;;;;11.83;72.19;100826.66;5115413;27;46388;-73
2022/04/05 08:06:24;;;;;;;;;18.25;16.00;;;;;11.87;71.90;100826.75;5115060;27;45533;-76
2022/04/05 08:08:50;;;;;;;;;13.75;11.25;;;;;11.92;71.43;100825.13;5096676;27;45334;-74
2022/04/05 08:11:15;;;;;;;;;16.00;12.75;;;;;11.97;72.11;100823.44;5097465;27;45499;-76
2022/04/05 08:13:40;;;;;;;;;8.00;8.00;;;;;12.00;71.34;100825.31;5095354;27;45506;-72
2022/04/05 08:16:06;;;;;;;;;39.00;32.00;;;;;12.02;72.02;100831.59;5095158;27;45303;-72
2022/04/05 08:18:31;;;;;;;;;16.25;13.75;;;;;12.01;72.03;100832.47;5095730;27;45420;-73
2022/04/05 08:20:56;;;;;;;;;15.00;11.50;;;;;11.94;71.51;100825.16;5095206;27;45578;-72
2022/04/05 08:23:22;;;;;;;;;16.00;14.75;;;;;11.97;72.05;100834.16;5095294;27;45498;-76
2022/04/05 08:25:47;;;;;;;;;16.00;14.75;;;;;12.03;72.30;100844.13;5095205;27;45577;-73
2022/04/05 08:28:13;;;;;;;;;15.25;11.00;;;;;11.84;71.76;100804.38;5110214;27;45249;-71
2022/04/05 08:30:38;;;;;;;;;10.00;10.00;;;;;11.88;71.96;100807.16;5114729;27;45353;-74
2022/04/05 08:33:05;;;;;;;;;14.00;11.75;;;;;12.01;71.87;100818.16;5114952;27;46457;-73
2022/04/05 08:35:30;;;;;;;;;11.25;11.00;;;;;11.88;72.17;100801.81;5114772;27;45367;-68
2022/04/05 08:37:56;;;;;;;;;18.75;13.00;;;;;12.05;72.46;100825.41;5114875;27;45283;-76
2022/04/05 08:40:24;;;;;;;;;19.00;16.25;;;;;12.15;72.52;100838.13;5082811;27;45711;-76
2022/04/05 08:42:51;;;;;;;;;18.00;15.75;;;;;12.07;72.45;100815.63;5114677;27;47502;-71
2022/04/05 08:45:19;;;;;;;;;10.50;10.50;;;;;12.24;72.26;100832.97;5115100;27;45459;-77
2022/04/05 08:47:46;;;;;;;;;12.50;11.50;;;;;12.26;72.85;100833.91;5114381;27;45547;-76
2022/04/05 08:50:17;;;;;;;;;13.75;13.00;;;;;12.24;72.69;100824.00;5115116;27;45482;-75
2022/04/05 08:52:44;;;;;;;;;19.25;16.25;;;;;12.25;73.17;100818.69;5095743;27;46150;-68
2022/04/05 08:55:10;;;;;;;;;17.50;14.00;;;;;12.35;72.53;100831.38;5113665;27;45538;-72
2022/04/05 08:57:35;;;;;;;;;20.50;16.75;;;;;12.32;72.28;100826.00;5114449;27;45513;-76
2022/04/05 09:00:07;;;;;;;;;23.50;17.00;;;;;12.43;72.08;100822.63;5108320;27;45488;-77
2022/04/05 09:02:33;;;;;;;;;12.75;12.00;;;;;12.39;71.77;100823.41;5083939;27;46153;-71
2022/04/05 09:05:02;;;;;;;;;15.50;15.50;;;;;12.26;71.42;100785.69;5114540;27;45404;-77
2022/04/05 09:07:31;;;;;;;;;16.50;13.75;;;;;12.43;71.43;100819.94;5108505;27;45415;-69
2022/04/05 09:10:06;;;;;;;;;15.00;12.00;;;;;12.45;72.16;100823.53;5114619;27;45476;-77
2022/04/05 09:12:38;;;;;;;;;17.75;15.75;;;;;12.49;71.63;100815.59;5114048;27;46457;-75
2022/04/05 09:15:16;;;;;;;;;16.75;12.00;;;;;12.49;71.84;100822.75;5113932;27;45327;-76
2022/04/05 09:17:44;;;;;;;;;24.75;19.00;;;;;12.53;72.14;100824.59;5114070;27;45537;-77
2022/04/05 09:20:11;;;;;;;;;13.75;13.00;;;;;12.38;71.62;100794.84;5114155;27;45449;-76
2022/04/05 09:22:37;;;;;;;;;15.50;15.50;;;;;12.12;71.18;100741.63;5113681;27;46208;-77
2022/04/05 09:25:06;;;;;;;;;9.00;8.75;;;;;12.33;71.48;100773.31;5114450;27;45506;-78
2022/04/05 09:27:51;;;;;;;;;15.25;13.50;;;;;12.57;71.87;100810.38;5113911;27;45422;-73
2022/04/05 09:30:27;;;;;;;;;19.25;17.75;;;;;12.41;71.05;100792.22;5113887;27;45702;-75
2022/04/05 09:32:57;;;;;;;;;18.00;14.25;;;;;12.63;71.17;100823.00;5095055;27;46276;-74
2022/04/05 09:35:29;;;;;;;;;14.75;14.25;;;;;12.66;71.76;100829.31;5085149;27;45345;-75
2022/04/05 09:38:15;;;;;;;;;17.00;10.00;;;;;12.66;71.47;100832.00;5111558;27;45774;-77
2022/04/05 09:40:41;;;;;;;;;18.50;17.00;;;;;12.66;71.26;100821.28;5117389;27;45421;-77
2022/04/05 09:43:08;;;;;;;;;17.50;11.75;;;;;12.75;71.20;100836.63;5116772;27;46009;-77
2022/04/05 09:46:02;;;;;;;;;18.25;14.25;;;;;12.72;71.67;100834.81;5117647;27;45591;-77
2022/04/05 09:48:30;;;;;;;;;16.25;14.50;;;;;12.75;71.89;100835.72;5119848;27;45494;-72
2022/04/05 09:50:58;;;;;;;;;16.75;15.75;;;;;12.82;71.22;100833.22;5099779;27;45351;-77
2022/04/05 09:53:25;;;;;;;;;23.00;18.50;;;;;12.81;71.64;100823.34;5100105;27;46927;-76
2022/04/05 09:56:01;;;;;;;;;15.50;14.25;;;;;12.84;70.51;100815.38;5113818;27;45611;-77
2022/04/05 09:58:27;;;;;;;;;17.25;14.25;;;;;12.83;70.28;100797.44;5117898;27;45400;-73
2022/04/05 10:01:07;;;;;;;;;14.50;11.00;;;;;12.82;71.01;100797.44;5117505;27;45569;-74
2022/04/05 10:03:36;;;;;;;;;18.00;14.75;;;;;12.70;70.41;100772.22;5098371;27;47946;-77
2022/04/05 10:06:02;;;;;;;;;14.50;13.25;;;;;12.99;71.83;100811.16;5116926;27;45357;-71
2022/04/05 10:08:32;;;;;;;;;16.50;13.75;;;;;13.03;70.70;100815.69;5068261;27;45498;-77
2022/04/05 10:10:59;;;;;;;;;16.50;14.00;;;;;12.99;70.61;100795.06;5117470;27;45417;-77
2022/04/05 10:13:25;;;;;;;;;24.00;17.25;;;;;12.76;70.33;100759.81;5085020;27;47336;-77
2022/04/05 10:15:51;;;;;;;;;18.25;15.75;;;;;13.17;70.84;100821.31;5116802;27;45432;-73
2022/04/05 10:18:20;;;;;;;;;17.25;15.75;;;;;13.17;70.67;100819.50;5116824;27;45614;-71
2022/04/05 10:20:48;;;;;;;;;21.00;16.75;;;;;13.20;70.92;100830.31;5085316;27;45484;-77
2022/04/05 10:23:20;;;;;;;;;12.25;10.75;;;;;13.20;69.78;100821.31;5116832;27;46179;-75
2022/04/05 10:25:50;;;;;;;;;19.50;16.50;;;;;12.97;69.36;100787.00;5101395;27;45530;-77
2022/04/05 10:28:19;;;;;;;;;10.75;9.75;;;;;13.21;69.97;100828.50;5097803;27;45366;-77
2022/04/05 10:30:51;;;;;;;;;16.00;12.75;;;;;13.22;69.41;100824.97;5098370;27;45696;-77
2022/04/05 10:33:45;;;;;;;;;8.75;8.75;;;;;13.18;70.46;100820.41;5097997;27;46114;-78
2022/04/05 10:36:13;;;;;;;;;13.00;12.00;;;;;12.94;69.61;100789.63;5096991;27;45459;-75
2022/04/05 10:38:41;;;;;;;;;11.25;10.25;;;;;13.11;69.87;100808.66;5097110;27;45383;-72
2022/04/05 10:41:12;;;;;;;;;12.50;11.75;;;;;13.19;70.07;100820.44;5097065;27;45624;-75
2022/04/05 10:43:39;;;;;;;;;11.00;11.00;;;;;13.19;69.33;100827.59;5109857;27;46569;-77
2022/04/05 10:46:05;;;;;;;;;12.75;11.50;;;;;13.18;69.93;100821.31;5110068;27;45568;-78
2022/04/05 10:48:31;;;;;;;;;12.00;11.25;;;;;12.93;70.28;100779.75;5103716;27;45406;-76
2022/04/05 10:51:00;;;;;;;;;17.50;14.25;;;;;13.18;69.66;100818.66;5096396;27;45428;-76
2022/04/05 10:54:17;;;;;;;;;13.25;11.25;;;;;12.95;70.61;100771.72;5096936;27;46370;-77
2022/04/05 10:56:27;;;;;;;;;14.50;12.50;;;;;13.23;70.04;100807.97;5096260;27;45543;-75
2022/04/05 10:58:52;;;;;;;;;12.75;12.25;;;;;13.28;70.13;100809.88;5094869;27;45306;-77
2022/04/05 11:01:21;;;;;;;;;10.00;10.00;;;;;13.20;70.06;100803.47;5100076;27;45299;-73
2022/04/05 11:04:16;;;;;;;;;10.50;8.00;;;;;13.31;70.00;100811.69;5096225;27;46160;-76
2022/04/05 11:07:02;;;;;;;;;23.50;14.25;;;;;13.32;69.22;100809.91;5109175;27;45480;-76
2022/04/05 11:09:34;;;;;;;;;17.25;12.75;;;;;13.29;69.45;100808.06;5109658;27;45432;-75
2022/04/05 11:12:02;;;;;;;;;13.25;10.75;;;;;13.31;68.89;100811.69;5077417;27;45437;-75